| Date | Time | Temp. (oF) | Dew Point (oF) | Rel. Hum. (%) | Press. (in.) | Wind Dir. (deg.) | Wind Speed (mph) | Hourly Rainfall (i n.) |
|
|---|---|---|---|---|---|---|---|---|---|
| 1 | 05/06 | 24:00 | 64 | 55 | 75 | 30.13 | 140 | 0 | 0.00 |
| 2 | 05/05 | 23:00 | 65 | 55 | 72 | 30.13 | 130 | 2 | 0.00 |
| 3 | 05/05 | 22:00 | 68 | 56 | 67 | 30.12 | 160 | 2 | 0.00 |
| 4 | 05/05 | 21:00 | 69 | 55 | 63 | 30.06 | 150 | 4 | 0.00 |
| 5 | 05/05 | 20:00 | 71 | 54 | 57 | 30.04 | 130 | 2 | 0.00 |
| 6 | 05/05 | 19:00 | 73 | 55 | 54 | 30.03 | 140 | 1 | 0.00 |
| 7 | 05/05 | 18:00 | 75 | 54 | 49 | 30.03 | 150 | 6 | 0.00 |
| 8 | 05/05 | 17:00 | 77 | 55 | 47 | 30.04 | 140 | 2 | 0.00 |
| 9 | 05/05 | 16:00 | 79 | 55 | 44 | 30.07 | 150 | 6 | 0.00 |
| 10 | 05/05 | 15:00 | 81 | 59 | 48 | 30.06 | 110 | 1 | 0.00 |
| 11 | 05/05 | 14:00 | 80 | 57 | 47 | 30.05 | 150 | 2 | 0.00 |
| 12 | 05/05 | 13:00 | 78 | 55 | 47 | 30.06 | 130 | 2 | 0.00 |
| 13 | 05/05 | 12:00 | 76 | 55 | 50 | 30.08 | 70 | 1 | 0.00 |
| 14 | 05/05 | 11:00 | 70 | 55 | 60 | 30.12 | 110 | 1 | 0.00 |
| 15 | 05/05 | 10:00 | 61 | 53 | 77 | 30.18 | 130 | 2 | 0.00 |
| 16 | 05/05 | 09:00 | 57 | 53 | 89 | 30.19 | 130 | 4 | 0.00 |
| 17 | 05/05 | 08:00 | 53 | 50 | 92 | 30.14 | 90 | 0 | 0.00 |
| 18 | 05/05 | 07:00 | 50 | 46 | 89 | 30.12 | 90 | 0 | 0.00 |
| 19 | 05/05 | 06:00 | 49 | 45 | 87 | 30.13 | 90 | 0 | 0.00 |
| 20 | 05/05 | 05:00 | 50 | 45 | 86 | 30.11 | 90 | 0 | 0.00 |
| 21 | 05/05 | 04:00 | 51 | 46 | 86 | 30.10 | 90 | 0 | 0.00 |
| 22 | 05/05 | 03:00 | 52 | 47 | 84 | 30.08 | 90 | 0 | 0.00 |
| 23 | 05/05 | 02:00 | 54 | 49 | 84 | 30.10 | 90 | 0 | 0.00 |
| 24 | 05/05 | 01:00 | 54 | 48 | 82 | 30.10 | 90 | 0 | 0.00 |